createdAt,value
2022-11-17T00:00:11.059Z,96745.60
2022-11-17T00:01:12.064Z,96746.19
2022-11-17T00:02:11.087Z,96749.22
2022-11-17T00:03:13.056Z,96745.36
2022-11-17T00:04:11.061Z,96747.60
2022-11-17T00:05:11.062Z,96745.05
2022-11-17T00:06:11.057Z,96746.85
2022-11-17T00:07:11.136Z,96740.54
2022-11-17T00:08:11.071Z,96746.05
2022-11-17T00:09:13.059Z,96746.57
2022-11-17T00:10:11.061Z,96748.29
2022-11-17T00:11:11.075Z,96747.54
2022-11-17T00:12:18.034Z,96743.23
2022-11-17T00:13:17.784Z,96748.45
2022-11-17T00:14:15.060Z,96744.66
2022-11-17T00:15:11.070Z,96746.56
2022-11-17T00:16:13.059Z,96739.90
2022-11-17T00:17:11.061Z,96747.55
2022-11-17T00:18:15.069Z,96746.39
2022-11-17T00:19:15.067Z,96741.76
2022-11-17T00:20:15.062Z,96746.96
2022-11-17T00:21:15.064Z,96732.58
2022-11-17T00:22:11.065Z,96733.81
2022-11-17T00:23:11.069Z,96735.55
2022-11-17T00:24:11.061Z,96734.79
2022-11-17T00:25:11.065Z,96733.26
2022-11-17T00:26:11.063Z,96736.21
2022-11-17T00:27:11.062Z,96733.81
2022-11-17T00:28:11.071Z,96730.82
2022-11-17T00:29:11.065Z,96732.64
2022-11-17T00:30:11.062Z,96734.99
2022-11-17T00:31:15.067Z,96734.92
2022-11-17T00:32:17.065Z,96734.87
2022-11-17T00:33:15.060Z,96735.49
2022-11-17T00:34:12.063Z,96724.90
2022-11-17T00:35:11.067Z,96727.86
2022-11-17T00:36:11.067Z,96729.62
2022-11-17T00:37:11.063Z,96728.27
2022-11-17T00:38:15.064Z,96731.44
2022-11-17T00:39:11.071Z,96730.75
2022-11-17T00:40:11.066Z,96733.04
2022-11-17T00:41:11.063Z,96728.07
2022-11-17T00:42:11.067Z,96733.70
2022-11-17T00:43:11.061Z,96734.94
2022-11-17T00:44:11.070Z,96740.82
2022-11-17T00:45:11.065Z,96741.48
2022-11-17T00:46:11.064Z,96738.15
2022-11-17T00:47:11.064Z,96737.81
2022-11-17T00:48:11.073Z,96743.95
2022-11-17T00:49:11.072Z,96737.67
2022-11-17T00:50:11.064Z,96738.13
2022-11-17T00:51:11.074Z,96734.90
2022-11-17T00:52:11.062Z,96730.26
2022-11-17T00:53:11.065Z,96737.02
2022-11-17T00:54:12.076Z,96734.17
2022-11-17T00:55:11.087Z,96738.25
2022-11-17T00:56:11.072Z,96739.33
2022-11-17T00:57:11.067Z,96737.09
2022-11-17T00:58:11.064Z,96739.11
2022-11-17T00:59:11.064Z,96738.23
2022-11-17T01:00:11.067Z,96742.27
2022-11-17T01:01:11.113Z,96742.12
2022-11-17T01:02:11.066Z,96736.52
2022-11-17T01:03:11.075Z,96736.56
2022-11-17T01:04:11.064Z,96741.84
2022-11-17T01:05:11.080Z,96735.76
2022-11-17T01:06:11.075Z,96732.59
2022-11-17T01:07:11.098Z,96733.03
2022-11-17T01:08:11.068Z,96734.36
2022-11-17T01:09:16.081Z,96733.48
2022-11-17T01:10:11.071Z,96738.05
2022-11-17T01:11:17.069Z,96733.43
2022-11-17T01:12:11.071Z,96738.40
2022-11-17T01:13:11.066Z,96742.85
2022-11-17T01:14:12.067Z,96737.61
2022-11-17T01:15:11.074Z,96737.88
2022-11-17T01:16:17.064Z,96738.37
2022-11-17T01:17:11.068Z,96737.10
2022-11-17T01:18:11.076Z,96730.50
2022-11-17T01:19:11.071Z,96731.82
2022-11-17T01:20:11.066Z,96727.45
2022-11-17T01:21:15.075Z,96726.41
2022-11-17T01:22:11.068Z,96730.00
2022-11-17T01:23:11.064Z,96730.58
2022-11-17T01:24:11.073Z,96727.86
2022-11-17T01:25:11.075Z,96723.23
2022-11-17T01:26:12.078Z,96726.70
2022-11-17T01:27:11.068Z,96726.79
2022-11-17T01:28:11.069Z,96730.05
2022-11-17T01:29:11.070Z,96728.84
2022-11-17T01:30:11.068Z,96732.34
2022-11-17T01:31:12.071Z,96731.34
2022-11-17T01:32:11.065Z,96730.86
2022-11-17T01:33:11.067Z,96736.74
2022-11-17T01:34:11.077Z,96733.82
2022-11-17T01:35:11.067Z,96735.49
2022-11-17T01:36:14.069Z,96729.96
2022-11-17T01:37:15.081Z,96734.25
2022-11-17T01:38:11.071Z,96735.46
2022-11-17T01:39:11.069Z,96736.71
2022-11-17T01:40:11.068Z,96742.72
2022-11-17T01:41:15.076Z,96743.55
2022-11-17T01:42:20.068Z,96739.89
2022-11-17T01:43:13.066Z,96740.06
2022-11-17T01:44:19.077Z,96744.55
2022-11-17T01:45:19.071Z,96744.40
2022-11-17T01:46:19.068Z,96738.79
2022-11-17T01:47:19.065Z,96741.76
2022-11-17T01:48:13.070Z,96740.91
2022-11-17T01:49:23.078Z,96749.80
2022-11-17T01:50:18.072Z,96737.95
2022-11-17T01:51:11.070Z,96747.30
2022-11-17T01:52:11.068Z,96748.74
2022-11-17T01:53:16.079Z,96747.71
2022-11-17T01:54:12.071Z,96750.07
2022-11-17T01:55:11.088Z,96743.16
2022-11-17T01:56:15.073Z,96743.59
2022-11-17T01:57:17.072Z,96745.83
2022-11-17T01:58:17.069Z,96747.37
2022-11-17T01:59:21.073Z,96747.68
2022-11-17T02:00:11.070Z,96746.16
2022-11-17T02:01:11.132Z,96749.14
2022-11-17T02:02:11.077Z,96747.76
2022-11-17T02:03:11.070Z,96749.79
2022-11-17T02:04:11.078Z,96748.27
2022-11-17T02:05:21.070Z,96747.77
2022-11-17T02:06:20.068Z,96745.25
2022-11-17T02:07:18.100Z,96746.55
2022-11-17T02:08:11.074Z,96748.01
2022-11-17T02:09:11.072Z,96748.43
2022-11-17T02:10:11.072Z,96747.70
2022-11-17T02:11:16.074Z,96745.45
2022-11-17T02:12:11.072Z,96743.02
2022-11-17T02:13:11.070Z,96746.10
2022-11-17T02:14:11.070Z,96746.89
2022-11-17T02:15:11.080Z,96751.91
2022-11-17T02:16:13.073Z,96752.14
2022-11-17T02:17:14.304Z,96748.56
2022-11-17T02:18:11.080Z,96746.56
2022-11-17T02:19:11.069Z,96750.98
2022-11-17T02:20:15.071Z,96747.38
2022-11-17T02:21:19.086Z,96748.94
2022-11-17T02:22:19.075Z,96751.57
2022-11-17T02:23:21.072Z,96749.49
2022-11-17T02:24:21.074Z,96748.43
2022-11-17T02:25:26.820Z,96751.42
2022-11-17T02:26:19.074Z,96746.63
2022-11-17T02:27:19.073Z,96746.89
2022-11-17T02:28:21.072Z,96749.61
2022-11-17T02:29:19.071Z,96749.24
2022-11-17T02:30:15.069Z,96748.09
2022-11-17T02:31:22.079Z,96742.85
2022-11-17T02:32:23.081Z,96742.12
2022-11-17T02:33:21.073Z,96748.07
2022-11-17T02:34:19.073Z,96751.52
2022-11-17T02:35:21.070Z,96757.42
2022-11-17T02:36:19.074Z,96755.60
2022-11-17T02:37:19.081Z,96756.70
2022-11-17T02:38:21.072Z,96758.46
2022-11-17T02:39:21.075Z,96767.24
2022-11-17T02:40:18.078Z,96774.41
2022-11-17T02:41:17.075Z,96771.44
2022-11-17T02:42:19.080Z,96771.90
2022-11-17T02:43:17.076Z,96766.45
2022-11-17T02:44:21.071Z,96766.56
2022-11-17T02:45:13.069Z,96770.25
2022-11-17T02:46:17.075Z,96775.36
2022-11-17T02:47:20.073Z,96775.65
2022-11-17T02:48:15.058Z,96775.30
2022-11-17T02:49:16.060Z,96783.36
2022-11-17T02:50:11.059Z,96779.45
2022-11-17T02:51:17.058Z,96783.30
2022-11-17T02:52:11.055Z,96782.91
2022-11-17T02:53:11.058Z,96781.45
2022-11-17T02:54:11.061Z,96779.32
2022-11-17T02:55:11.060Z,96782.34
2022-11-17T02:56:11.064Z,96782.28
2022-11-17T02:57:19.059Z,96775.96
2022-11-17T02:58:13.057Z,96778.76
2022-11-17T02:59:11.059Z,96773.61
2022-11-17T03:00:15.061Z,96779.15
2022-11-17T03:01:19.090Z,96781.20
2022-11-17T03:02:19.061Z,96785.87
2022-11-17T03:03:23.058Z,96777.12
2022-11-17T03:04:19.066Z,96781.34
2022-11-17T03:05:20.061Z,96785.00
2022-11-17T03:06:21.061Z,96782.24
2022-11-17T03:07:21.103Z,96783.79
2022-11-17T03:08:19.063Z,96791.21
2022-11-17T03:09:21.061Z,96788.89
2022-11-17T03:10:20.067Z,96787.45
2022-11-17T03:11:11.061Z,96791.07
2022-11-17T03:12:19.059Z,96788.65
2022-11-17T03:13:19.062Z,96790.96
2022-11-17T03:14:19.061Z,96791.31
2022-11-17T03:15:21.073Z,96792.47
2022-11-17T03:16:19.060Z,96794.44
2022-11-17T03:17:17.064Z,96798.06
2022-11-17T03:18:21.062Z,96794.33
2022-11-17T03:19:19.063Z,96795.29
2022-11-17T03:20:18.085Z,96794.21
2022-11-17T03:21:21.062Z,96794.41
2022-11-17T03:22:21.058Z,96789.33
2022-11-17T03:23:21.054Z,96787.02
2022-11-17T03:24:17.067Z,96795.63
2022-11-17T03:25:14.068Z,96798.55
2022-11-17T03:26:17.063Z,96799.08
2022-11-17T03:27:23.059Z,96792.31
2022-11-17T03:28:11.060Z,96794.36
2022-11-17T03:29:13.062Z,96791.45
2022-11-17T03:30:11.062Z,96794.36
2022-11-17T03:31:11.060Z,96789.29
2022-11-17T03:32:11.062Z,96791.64
2022-11-17T03:33:16.062Z,96791.75
2022-11-17T03:34:14.059Z,96797.96
2022-11-17T03:35:15.062Z,96794.62
2022-11-17T03:36:13.074Z,96792.25
2022-11-17T03:37:12.060Z,96793.23
2022-11-17T03:38:12.063Z,96794.17
2022-11-17T03:39:21.070Z,96791.25
2022-11-17T03:40:12.065Z,96801.54
2022-11-17T03:41:13.061Z,96793.14
2022-11-17T03:42:18.065Z,96794.25
2022-11-17T03:43:12.069Z,96797.60
2022-11-17T03:44:11.059Z,96799.71
2022-11-17T03:45:20.061Z,96793.75
2022-11-17T03:46:14.064Z,96798.79
2022-11-17T03:47:13.062Z,96803.71
2022-11-17T03:48:19.063Z,96803.29
2022-11-17T03:49:19.063Z,96804.78
2022-11-17T03:50:19.112Z,96802.20
2022-11-17T03:51:17.062Z,96805.98
2022-11-17T03:52:11.061Z,96799.06
2022-11-17T03:53:11.065Z,96802.37
2022-11-17T03:54:11.071Z,96808.36
2022-11-17T03:55:11.062Z,96804.00
2022-11-17T03:56:19.063Z,96800.87
2022-11-17T03:57:17.069Z,96804.17
2022-11-17T03:58:14.064Z,96803.06
2022-11-17T03:59:19.061Z,96804.80
2022-11-17T04:00:11.061Z,96803.67
2022-11-17T04:01:11.071Z,96801.87
2022-11-17T04:02:15.060Z,96803.05
2022-11-17T04:03:11.068Z,96803.86
2022-11-17T04:04:16.072Z,96805.53
2022-11-17T04:05:11.067Z,96800.39
2022-11-17T04:06:11.082Z,96801.18
2022-11-17T04:07:11.117Z,96800.43
2022-11-17T04:08:11.079Z,96802.19
2022-11-17T04:09:11.064Z,96801.23
2022-11-17T04:10:15.063Z,96803.02
2022-11-17T04:11:15.064Z,96804.71
2022-11-17T04:12:15.061Z,96802.87
2022-11-17T04:13:15.059Z,96803.03
2022-11-17T04:14:15.062Z,96802.70
2022-11-17T04:15:17.079Z,96802.96
2022-11-17T04:16:11.065Z,96802.29
2022-11-17T04:17:11.070Z,96805.19
2022-11-17T04:18:11.063Z,96802.96
2022-11-17T04:19:11.065Z,96813.01
2022-11-17T04:20:11.063Z,96815.78
2022-11-17T04:21:11.067Z,96815.04
2022-11-17T04:22:11.064Z,96814.38
2022-11-17T04:23:12.084Z,96810.21
2022-11-17T04:24:11.066Z,96813.72
2022-11-17T04:25:11.068Z,96816.86
2022-11-17T04:26:15.081Z,96811.48
2022-11-17T04:27:17.109Z,96813.22
2022-11-17T04:28:15.067Z,96816.11
2022-11-17T04:29:11.067Z,96820.36
2022-11-17T04:30:11.062Z,96819.68
2022-11-17T04:31:15.065Z,96818.03
2022-11-17T04:32:11.073Z,96821.88
2022-11-17T04:33:11.064Z,96820.02
2022-11-17T04:34:11.068Z,96822.52
2022-11-17T04:35:11.074Z,96826.47
2022-11-17T04:36:11.070Z,96822.16
2022-11-17T04:37:15.066Z,96841.59
2022-11-17T04:38:11.068Z,96838.02
2022-11-17T04:39:11.065Z,96836.45
2022-11-17T04:40:11.066Z,96828.71
2022-11-17T04:41:15.068Z,96836.33
2022-11-17T04:42:11.074Z,96830.81
2022-11-17T04:43:11.063Z,96831.20
2022-11-17T04:44:11.065Z,96830.07
2022-11-17T04:45:11.072Z,96834.10
2022-11-17T04:46:11.064Z,96830.48
2022-11-17T04:47:11.064Z,96831.12
2022-11-17T04:48:11.069Z,96831.48
2022-11-17T04:49:11.064Z,96834.20
2022-11-17T04:50:11.069Z,96838.66
2022-11-17T04:51:11.074Z,96831.28
2022-11-17T04:52:11.064Z,96839.16
2022-11-17T04:53:11.068Z,96832.39
2022-11-17T04:54:11.084Z,96840.25
2022-11-17T04:55:11.066Z,96829.14
2022-11-17T04:56:11.067Z,96838.98
2022-11-17T04:57:11.071Z,96833.76
2022-11-17T04:58:11.172Z,96833.38
2022-11-17T04:59:11.065Z,96837.00
2022-11-17T05:00:11.070Z,96837.04
2022-11-17T05:01:15.066Z,96835.15
2022-11-17T05:02:11.185Z,96820.95
2022-11-17T05:03:11.067Z,96825.12
2022-11-17T05:04:11.075Z,96838.77
2022-11-17T05:05:11.064Z,96838.43
2022-11-17T05:06:11.071Z,96836.13
2022-11-17T05:07:11.095Z,96836.26
2022-11-17T05:08:11.067Z,96834.11
2022-11-17T05:09:15.067Z,96834.04
2022-11-17T05:10:11.084Z,96834.65
2022-11-17T05:11:15.165Z,96833.66
2022-11-17T05:12:15.072Z,96834.34
2022-11-17T05:13:15.072Z,96837.25
2022-11-17T05:14:11.078Z,96835.10
2022-11-17T05:15:11.066Z,96838.57
2022-11-17T05:16:15.071Z,96839.77
2022-11-17T05:17:11.936Z,96843.95
2022-11-17T05:18:11.069Z,96836.71
2022-11-17T05:19:15.071Z,96839.70
2022-11-17T05:20:11.077Z,96834.20
2022-11-17T05:21:11.071Z,96844.89
2022-11-17T05:22:18.077Z,96843.72
2022-11-17T05:23:15.069Z,96850.51
2022-11-17T05:24:11.077Z,96842.93
2022-11-17T05:25:11.070Z,96845.57
2022-11-17T05:26:11.072Z,96852.92
2022-11-17T05:27:11.079Z,96847.71
2022-11-17T05:28:11.068Z,96848.09
2022-11-17T05:29:11.082Z,96844.30
2022-11-17T05:30:11.074Z,96854.68
2022-11-17T05:31:11.070Z,96848.73
2022-11-17T05:32:11.068Z,96856.37
2022-11-17T05:33:11.075Z,96848.65
2022-11-17T05:34:11.072Z,96859.29
2022-11-17T05:35:11.072Z,96850.18
2022-11-17T05:36:11.072Z,96868.72
2022-11-17T05:37:11.073Z,96855.84
2022-11-17T05:38:11.073Z,96862.70
2022-11-17T05:39:11.070Z,96862.23
2022-11-17T05:40:11.081Z,96867.29
2022-11-17T05:41:11.069Z,96857.75
2022-11-17T05:42:11.075Z,96866.80
2022-11-17T05:43:11.080Z,96870.00
2022-11-17T05:44:11.073Z,96866.56
2022-11-17T05:45:11.068Z,96860.95
2022-11-17T05:46:11.083Z,96864.04
2022-11-17T05:47:11.078Z,96873.73
2022-11-17T05:48:11.054Z,96873.48
2022-11-17T05:49:11.059Z,96878.15
2022-11-17T05:50:11.058Z,96875.92
2022-11-17T05:51:11.054Z,96872.32
2022-11-17T05:52:11.061Z,96873.51
2022-11-17T05:53:11.116Z,96875.96
2022-11-17T05:54:11.055Z,96868.33
2022-11-17T05:55:11.061Z,96873.20
2022-11-17T05:56:19.061Z,96872.38
2022-11-17T05:57:15.058Z,96876.33
2022-11-17T05:58:22.057Z,96879.93
2022-11-17T05:59:23.423Z,96878.86
2022-11-17T06:00:13.052Z,96873.14
2022-11-17T06:01:11.058Z,96885.20
2022-11-17T06:02:19.062Z,96879.49
2022-11-17T06:03:18.059Z,96880.90
2022-11-17T06:04:11.134Z,96876.14
2022-11-17T06:05:14.401Z,96877.77
2022-11-17T06:06:13.037Z,96887.19
2022-11-17T06:07:11.138Z,96887.86
2022-11-17T06:08:11.061Z,96877.42
2022-11-17T06:09:11.058Z,96881.25
2022-11-17T06:10:11.060Z,96890.75
2022-11-17T06:11:11.061Z,96885.83
2022-11-17T06:12:11.058Z,96889.26
2022-11-17T06:13:11.060Z,96885.91
2022-11-17T06:14:11.061Z,96889.15
2022-11-17T06:15:11.056Z,96887.86
2022-11-17T06:16:12.059Z,96887.29
2022-11-17T06:17:22.057Z,96885.82
2022-11-17T06:18:17.059Z,96890.49
2022-11-17T06:19:19.060Z,96879.12
2022-11-17T06:20:19.060Z,96889.67
2022-11-17T06:21:13.896Z,96891.39
2022-11-17T06:22:12.964Z,96890.77
2022-11-17T06:23:11.065Z,96893.94
2022-11-17T06:24:11.059Z,96889.74
2022-11-17T06:25:11.062Z,96894.72
2022-11-17T06:26:11.060Z,96891.90
2022-11-17T06:27:14.062Z,96893.07
2022-11-17T06:28:13.062Z,96894.70
2022-11-17T06:29:11.058Z,96893.99
2022-11-17T06:30:11.062Z,96893.43
2022-11-17T06:31:11.070Z,96897.75
2022-11-17T06:32:11.060Z,96896.37
2022-11-17T06:33:12.065Z,96896.01
2022-11-17T06:34:11.072Z,96894.48
2022-11-17T06:35:11.070Z,96899.67
2022-11-17T06:36:11.058Z,96894.45
2022-11-17T06:37:11.072Z,96897.87
2022-11-17T06:38:11.063Z,96889.13
2022-11-17T06:39:11.058Z,96890.23
2022-11-17T06:40:11.066Z,96896.82
2022-11-17T06:41:12.240Z,96897.16
2022-11-17T06:42:11.058Z,96890.97
2022-11-17T06:43:15.075Z,96893.46
2022-11-17T06:44:11.063Z,96898.74
2022-11-17T06:45:11.061Z,96900.62
2022-11-17T06:46:11.062Z,96900.01
2022-11-17T06:47:11.068Z,96903.34
2022-11-17T06:48:11.059Z,96899.49
2022-11-17T06:49:11.063Z,96906.11
2022-11-17T06:50:11.072Z,96905.33
2022-11-17T06:51:11.061Z,96905.42
2022-11-17T06:52:11.069Z,96905.11
2022-11-17T06:53:11.096Z,96906.52
2022-11-17T06:54:12.066Z,96910.90
2022-11-17T06:55:11.076Z,96911.00
2022-11-17T06:56:13.078Z,96906.97
2022-11-17T06:57:11.071Z,96906.30
2022-11-17T06:58:13.075Z,96909.25
2022-11-17T06:59:11.072Z,96900.91
2022-11-17T07:00:11.070Z,96911.63
2022-11-17T07:01:11.121Z,96903.30
2022-11-17T07:02:11.073Z,96911.25
2022-11-17T07:03:11.073Z,96908.66
2022-11-17T07:04:11.067Z,96911.60
2022-11-17T07:05:11.079Z,96912.48
2022-11-17T07:06:11.075Z,96915.73
2022-11-17T07:07:11.112Z,96912.63
2022-11-17T07:08:11.077Z,96912.73
2022-11-17T07:09:11.071Z,96916.24
2022-11-17T07:10:11.066Z,96917.16
2022-11-17T07:11:14.074Z,96917.99
2022-11-17T07:12:11.072Z,96918.49
2022-11-17T07:13:11.072Z,96912.21
2022-11-17T07:14:11.072Z,96922.47
2022-11-17T07:15:11.073Z,96924.34
2022-11-17T07:16:12.071Z,96923.91
2022-11-17T07:17:11.072Z,96919.96
2022-11-17T07:18:11.074Z,96917.63
2022-11-17T07:19:12.072Z,96926.43
2022-11-17T07:20:11.076Z,96926.43
2022-11-17T07:21:11.081Z,96929.18
2022-11-17T07:22:11.075Z,96925.30
2022-11-17T07:23:11.068Z,96927.49
2022-11-17T07:24:11.084Z,96930.96
2022-11-17T07:25:11.076Z,96933.59
2022-11-17T07:26:11.069Z,96933.90
2022-11-17T07:27:11.075Z,96925.80
2022-11-17T07:28:11.072Z,96932.06
2022-11-17T07:29:11.068Z,96940.08
2022-11-17T07:30:11.076Z,96944.19
2022-11-17T07:31:11.073Z,96943.10
2022-11-17T07:32:12.071Z,96940.16
2022-11-17T07:33:11.076Z,96940.36
2022-11-17T07:34:11.075Z,96939.57
2022-11-17T07:35:11.069Z,96941.18
2022-11-17T07:36:13.076Z,96943.13
2022-11-17T07:37:11.074Z,96951.31
2022-11-17T07:38:11.071Z,96945.42
2022-11-17T07:39:11.077Z,96942.69
2022-11-17T07:40:11.074Z,96941.28
2022-11-17T07:41:12.074Z,96942.52
2022-11-17T07:42:11.074Z,96937.20
2022-11-17T07:43:11.075Z,96946.96
2022-11-17T07:44:11.072Z,96946.35
2022-11-17T07:45:11.090Z,96947.29
2022-11-17T07:46:12.081Z,96945.50
2022-11-17T07:47:11.076Z,96949.44
2022-11-17T07:48:11.069Z,96946.94
2022-11-17T07:49:11.075Z,96950.23
2022-11-17T07:50:11.081Z,96948.88
2022-11-17T07:51:11.075Z,96943.76
2022-11-17T07:52:11.075Z,96944.25
2022-11-17T07:53:11.074Z,96953.65
2022-11-17T07:54:11.072Z,96945.73
2022-11-17T07:55:11.074Z,96944.76
2022-11-17T07:56:11.094Z,96949.00
2022-11-17T07:57:11.078Z,96952.29
2022-11-17T07:58:11.075Z,96955.50
2022-11-17T07:59:11.078Z,96951.08
2022-11-17T08:00:11.073Z,96951.41
2022-11-17T08:01:14.174Z,96954.01
2022-11-17T08:02:11.084Z,96954.49
2022-11-17T08:03:11.148Z,96955.49
2022-11-17T08:04:11.130Z,96959.09
2022-11-17T08:05:11.084Z,96953.91
2022-11-17T08:06:11.075Z,96949.54
2022-11-17T08:07:11.149Z,96959.02
2022-11-17T08:08:11.077Z,96963.99
2022-11-17T08:09:11.077Z,96963.60
2022-11-17T08:10:11.076Z,96961.72
2022-11-17T08:11:11.081Z,96959.50
2022-11-17T08:12:11.077Z,96962.49
2022-11-17T08:13:11.077Z,96964.02
2022-11-17T08:14:11.078Z,96963.98
2022-11-17T08:15:11.077Z,96959.60
2022-11-17T08:16:11.079Z,96964.69
2022-11-17T08:17:11.077Z,96969.70
2022-11-17T08:18:11.082Z,96958.96
2022-11-17T08:19:11.073Z,96958.69
2022-11-17T08:20:11.085Z,96964.46
2022-11-17T08:21:14.079Z,96970.62
2022-11-17T08:22:11.074Z,96955.85
2022-11-17T08:23:11.075Z,96961.66
2022-11-17T08:24:11.084Z,96958.78
2022-11-17T08:25:11.074Z,96960.36
2022-11-17T08:26:11.076Z,96967.28
2022-11-17T08:27:11.084Z,96970.55
2022-11-17T08:28:11.076Z,96978.45
2022-11-17T08:29:11.077Z,96969.99
2022-11-17T08:30:11.085Z,96973.98
2022-11-17T08:31:11.076Z,96968.62
2022-11-17T08:32:11.077Z,96974.95
2022-11-17T08:33:11.084Z,96978.03
2022-11-17T08:34:11.075Z,96976.55
2022-11-17T08:35:11.078Z,96979.31
2022-11-17T08:36:11.084Z,96982.96
2022-11-17T08:37:11.084Z,96980.71
2022-11-17T08:38:11.075Z,96981.04
2022-11-17T08:39:11.085Z,96981.98
2022-11-17T08:40:11.081Z,96980.54
2022-11-17T08:41:11.081Z,96987.57
2022-11-17T08:42:11.085Z,96983.60
2022-11-17T08:43:11.078Z,96985.89
2022-11-17T08:44:11.078Z,96989.96
2022-11-17T08:45:11.077Z,96981.28
2022-11-17T08:46:13.081Z,96988.46
2022-11-17T08:47:11.078Z,96991.05
2022-11-17T08:48:11.069Z,96987.06
2022-11-17T08:49:11.065Z,96987.29
2022-11-17T08:50:11.059Z,96988.84
2022-11-17T08:51:12.070Z,96989.66
2022-11-17T08:52:11.071Z,96994.38
2022-11-17T08:53:15.065Z,96991.86
2022-11-17T08:54:12.068Z,96983.29
2022-11-17T08:55:11.159Z,96992.16
2022-11-17T08:56:11.064Z,96989.87
2022-11-17T08:57:11.165Z,96994.39
2022-11-17T08:58:11.061Z,96994.40
2022-11-17T08:59:13.063Z,96992.65
2022-11-17T09:00:11.065Z,96996.96
2022-11-17T09:01:13.140Z,96993.04
2022-11-17T09:02:11.059Z,96997.93
2022-11-17T09:03:11.077Z,97000.07
2022-11-17T09:04:11.069Z,96995.85
2022-11-17T09:05:11.078Z,96995.64
2022-11-17T09:06:11.061Z,97000.24
2022-11-17T09:07:11.119Z,97007.40
2022-11-17T09:08:38.374Z,96999.64
2022-11-17T09:09:13.115Z,96998.78
2022-11-17T09:10:11.185Z,97005.34
2022-11-17T09:11:11.074Z,96995.50
2022-11-17T09:12:11.059Z,96995.78
2022-11-17T09:13:12.734Z,97001.72
2022-11-17T09:14:11.064Z,96998.18
2022-11-17T09:15:11.061Z,97003.20
2022-11-17T09:16:11.061Z,97006.35
2022-11-17T09:17:11.081Z,97004.75
2022-11-17T09:18:11.066Z,97003.98
2022-11-17T09:19:11.061Z,96996.77
2022-11-17T09:20:11.072Z,97002.20
2022-11-17T09:21:14.060Z,97000.65
2022-11-17T09:22:11.062Z,97002.23
2022-11-17T09:23:11.070Z,97003.15
2022-11-17T09:24:11.060Z,97004.54
2022-11-17T09:25:13.507Z,97010.10
2022-11-17T09:26:11.071Z,97001.38
2022-11-17T09:27:11.059Z,97002.23
2022-11-17T09:28:11.058Z,97007.93
2022-11-17T09:29:11.066Z,97013.40
2022-11-17T09:30:11.063Z,97013.04
2022-11-17T09:31:12.203Z,97005.37
2022-11-17T09:32:11.065Z,97019.89
2022-11-17T09:33:11.063Z,97018.18
2022-11-17T09:34:11.095Z,97016.84
2022-11-17T09:35:13.072Z,97011.87
2022-11-17T09:36:11.064Z,97019.91
2022-11-17T09:37:11.062Z,97024.13
2022-11-17T09:38:11.062Z,97022.90
2022-11-17T09:39:11.063Z,97022.46
2022-11-17T09:40:13.064Z,97029.75
2022-11-17T09:41:21.069Z,97029.39
2022-11-17T09:42:15.071Z,97025.08
2022-11-17T09:43:21.061Z,97025.59
2022-11-17T09:44:21.064Z,97029.20
2022-11-17T09:45:20.067Z,97028.54
2022-11-17T09:46:19.064Z,97026.04
2022-11-17T09:47:19.078Z,97029.97
2022-11-17T09:48:40.100Z,97028.20
2022-11-17T09:49:19.062Z,97031.43
2022-11-17T09:50:19.301Z,97026.60
2022-11-17T09:51:14.073Z,97024.89
2022-11-17T09:52:19.066Z,97038.59
2022-11-17T09:53:22.065Z,97038.74
2022-11-17T09:54:19.066Z,97027.84
2022-11-17T09:55:19.068Z,97029.67
2022-11-17T09:56:11.071Z,97030.01
2022-11-17T09:57:19.065Z,97036.14
2022-11-17T09:58:19.066Z,97036.77
2022-11-17T09:59:12.073Z,97027.48
2022-11-17T10:00:18.132Z,97032.62
2022-11-17T10:01:15.064Z,97034.41
2022-11-17T10:02:11.103Z,97030.46
2022-11-17T10:03:20.074Z,97032.65
2022-11-17T10:04:15.068Z,97034.78
2022-11-17T10:05:19.065Z,97027.87
2022-11-17T10:06:19.065Z,97032.77
2022-11-17T10:07:11.119Z,97033.18
2022-11-17T10:08:16.068Z,97033.50
2022-11-17T10:09:22.585Z,97031.53
2022-11-17T10:10:23.155Z,97028.51
2022-11-17T10:11:15.068Z,97031.57
2022-11-17T10:12:19.075Z,97032.97
2022-11-17T10:13:23.067Z,97040.65
2022-11-17T10:14:18.068Z,97035.32
2022-11-17T10:15:19.070Z,97031.06
2022-11-17T10:16:14.066Z,97042.58
2022-11-17T10:17:11.069Z,97044.73
2022-11-17T10:18:13.063Z,97041.97
2022-11-17T10:19:19.072Z,97044.56
2022-11-17T10:20:17.109Z,97041.02
2022-11-17T10:21:11.071Z,97046.28
2022-11-17T10:22:17.068Z,97042.68
2022-11-17T10:23:14.070Z,97044.86
2022-11-17T10:24:11.068Z,97047.84
2022-11-17T10:25:19.072Z,97049.23
2022-11-17T10:26:13.070Z,97043.68
2022-11-17T10:27:21.085Z,97043.57
2022-11-17T10:28:15.069Z,97047.48
2022-11-17T10:29:12.073Z,97050.28
2022-11-17T10:30:19.072Z,97050.41
2022-11-17T10:31:17.071Z,97048.02
2022-11-17T10:32:15.075Z,97048.09
2022-11-17T10:33:14.066Z,97049.11
2022-11-17T10:34:18.069Z,97053.86
2022-11-17T10:35:15.079Z,97050.93
2022-11-17T10:36:19.070Z,97046.81
2022-11-17T10:37:19.068Z,97054.34
2022-11-17T10:38:19.107Z,97053.27
2022-11-17T10:39:19.076Z,97050.91
2022-11-17T10:40:24.708Z,97053.12
2022-11-17T10:41:19.046Z,97056.78
2022-11-17T10:42:19.066Z,97056.29
2022-11-17T10:43:19.069Z,97057.01
2022-11-17T10:44:19.076Z,97057.23
2022-11-17T10:45:16.069Z,97058.48
2022-11-17T10:46:15.081Z,97055.26
2022-11-17T10:47:19.071Z,97053.77
2022-11-17T10:48:15.078Z,97057.43
2022-11-17T10:49:20.068Z,97050.89
2022-11-17T10:50:19.071Z,97053.31
2022-11-17T10:51:22.070Z,97056.51
2022-11-17T10:52:17.070Z,97052.93
2022-11-17T10:53:21.108Z,97052.55
2022-11-17T10:54:21.075Z,97049.72
2022-11-17T10:55:19.068Z,97052.76
2022-11-17T10:56:16.078Z,97056.58
2022-11-17T10:57:19.082Z,97051.18
2022-11-17T10:58:21.073Z,97052.62
2022-11-17T10:59:19.080Z,97053.20
2022-11-17T11:00:19.071Z,97055.11
2022-11-17T11:01:11.125Z,97055.43
2022-11-17T11:02:19.081Z,97053.73
2022-11-17T11:03:18.073Z,97055.32
2022-11-17T11:04:19.071Z,97056.38
2022-11-17T11:05:17.071Z,97050.05
2022-11-17T11:06:21.080Z,97052.99
2022-11-17T11:07:14.213Z,97052.34
2022-11-17T11:08:19.071Z,97052.73
2022-11-17T11:09:18.077Z,97056.12
2022-11-17T11:10:16.077Z,97053.25
2022-11-17T11:11:17.075Z,97057.16
2022-11-17T11:12:15.070Z,97053.73
2022-11-17T11:13:23.073Z,97058.64
2022-11-17T11:14:19.075Z,97059.75
2022-11-17T11:15:19.073Z,97054.86
2022-11-17T11:16:12.075Z,97062.23
2022-11-17T11:17:14.070Z,97060.52
2022-11-17T11:18:14.077Z,97060.16
2022-11-17T11:19:14.074Z,97057.13
2022-11-17T11:20:18.069Z,97051.61
2022-11-17T11:21:18.086Z,97060.33
2022-11-17T11:22:21.375Z,97062.23
2022-11-17T11:23:18.073Z,97059.89
2022-11-17T11:24:19.073Z,97057.65
2022-11-17T11:25:21.075Z,97059.76
2022-11-17T11:26:21.075Z,97057.73
2022-11-17T11:27:23.089Z,97052.01
2022-11-17T11:28:21.075Z,97062.38
2022-11-17T11:29:19.074Z,97059.10
2022-11-17T11:30:15.107Z,97061.83
2022-11-17T11:31:21.073Z,97064.74
2022-11-17T11:32:19.098Z,97061.32
2022-11-17T11:33:19.075Z,97065.95
2022-11-17T11:34:19.073Z,97065.83
2022-11-17T11:35:19.078Z,97069.23
2022-11-17T11:36:19.075Z,97065.34
2022-11-17T11:37:12.082Z,97065.44
2022-11-17T11:38:19.074Z,97063.72
2022-11-17T11:39:21.076Z,97067.59
2022-11-17T11:40:16.074Z,97064.39
2022-11-17T11:41:21.078Z,97064.98
2022-11-17T11:42:21.078Z,97068.56
2022-11-17T11:43:19.073Z,97065.24
2022-11-17T11:44:19.076Z,97066.79